createdAt,value
2018-01-31T01:52:21.085Z,90.01
2018-01-31T01:54:34.572Z,90.25
2018-01-31T01:57:02.217Z,89.39
2018-01-31T01:59:29.667Z,89.59
2018-01-31T02:01:57.108Z,89.45
2018-01-31T02:04:24.565Z,89.62
2018-01-31T02:06:52.013Z,89.75
2018-01-31T02:09:19.478Z,89.62
2018-01-31T02:11:46.920Z,90.56
2018-01-31T02:14:14.355Z,90.64
2018-01-31T02:16:41.813Z,90.38
2018-01-31T02:19:09.261Z,90.47
2018-01-31T02:21:36.981Z,90.87
2018-01-31T02:24:04.416Z,89.94
2018-01-31T02:26:31.849Z,89.99
2018-01-31T02:28:59.304Z,90.54
2018-01-31T02:31:26.880Z,90.73
2018-01-31T02:33:54.778Z,90.43
2018-01-31T02:36:22.221Z,90.38
2018-01-31T02:39:01.573Z,89.89
2018-01-31T02:41:29.013Z,90.67
2018-01-31T02:43:56.449Z,90.98
2018-01-31T02:46:23.953Z,91.03
2018-01-31T02:48:51.397Z,89.93
2018-01-31T02:51:18.853Z,89.08
2018-01-31T02:53:46.288Z,89.66
2018-01-31T02:56:13.976Z,89.66
2018-01-31T02:58:41.413Z,90.45
2018-01-31T03:01:08.861Z,90.20
2018-01-31T03:03:36.325Z,90.00
2018-01-31T03:06:03.844Z,89.90
2018-01-31T03:08:31.553Z,90.02
2018-01-31T03:10:58.992Z,90.04
2018-01-31T03:13:26.433Z,89.39
2018-01-31T03:15:53.884Z,89.95
2018-01-31T03:18:21.321Z,89.90
2018-01-31T03:20:49.024Z,89.99
2018-01-31T03:23:16.489Z,89.23
2018-01-31T03:25:43.944Z,88.62
2018-01-31T03:28:11.409Z,88.58
2018-01-31T03:30:38.865Z,88.97
2018-01-31T03:33:06.356Z,89.54
2018-01-31T03:35:33.796Z,88.72
2018-01-31T03:38:01.231Z,88.95
2018-01-31T03:40:28.708Z,89.45
2018-01-31T03:42:56.141Z,89.25
2018-01-31T03:45:23.605Z,88.63
2018-01-31T03:47:51.037Z,87.95
2018-01-31T03:50:18.476Z,88.16
2018-01-31T03:52:45.963Z,88.55
2018-01-31T03:55:13.402Z,88.41
2018-01-31T03:57:41.558Z,88.07
2018-01-31T04:00:09.029Z,88.76
2018-01-31T04:02:36.477Z,87.92
2018-01-31T04:05:03.937Z,88.19
2018-01-31T04:07:31.393Z,87.89
2018-01-31T04:09:59.102Z,87.34
2018-01-31T04:12:26.536Z,87.87
2018-01-31T04:14:53.973Z,87.86
2018-01-31T04:17:21.428Z,87.26
2018-01-31T04:19:48.865Z,87.46
2018-01-31T04:22:16.496Z,86.85
2018-01-31T04:27:19.000Z,87.11
2018-01-31T04:29:46.432Z,86.76
2018-01-31T04:32:13.867Z,87.40
2018-01-31T04:34:41.344Z,88.03
2018-01-31T04:37:08.798Z,87.62
2018-01-31T04:39:36.406Z,87.64
2018-01-31T04:42:03.847Z,87.45
2018-01-31T04:44:31.288Z,86.95
2018-01-31T04:46:58.744Z,87.11
2018-01-31T04:49:26.186Z,86.77
2018-01-31T04:51:53.660Z,87.07
2018-01-31T04:54:21.099Z,86.96
2018-01-31T04:56:48.533Z,86.68
2018-01-31T04:59:15.989Z,87.40
2018-01-31T05:01:43.436Z,86.40
2018-01-31T05:04:11.121Z,86.38
2018-01-31T05:06:39.586Z,86.82
2018-01-31T05:09:07.047Z,86.74
2018-01-31T05:11:34.710Z,86.43
2018-01-31T05:14:02.662Z,86.33
2018-01-31T05:16:30.215Z,86.41
2018-01-31T05:18:57.676Z,86.57
2018-01-31T05:21:25.153Z,86.00
2018-01-31T05:23:52.608Z,86.14
2018-01-31T05:26:20.054Z,85.61
2018-01-31T05:28:47.837Z,86.64
2018-01-31T05:31:15.281Z,86.64
2018-01-31T05:33:42.716Z,86.30
2018-01-31T05:36:10.227Z,86.53
2018-01-31T05:38:37.670Z,85.86
2018-01-31T05:41:05.557Z,85.90
2018-01-31T05:43:33.009Z,85.88
2018-01-31T05:46:00.457Z,85.87
2018-01-31T05:48:27.912Z,85.77
2018-01-31T05:50:55.362Z,85.39
2018-01-31T05:53:23.168Z,85.37
2018-01-31T05:55:50.620Z,84.92
2018-01-31T05:58:18.064Z,85.39
2018-01-31T06:00:45.547Z,85.57
2018-01-31T06:03:13.149Z,85.24
2018-01-31T06:05:40.918Z,85.23
2018-01-31T06:08:08.357Z,84.97
2018-01-31T06:10:35.814Z,85.07
2018-01-31T06:13:03.287Z,85.25
2018-01-31T06:15:31.208Z,85.19
2018-01-31T06:17:58.668Z,85.54
2018-01-31T06:20:26.128Z,84.88
2018-01-31T06:22:53.569Z,84.76
2018-01-31T06:25:21.325Z,84.69
2018-01-31T06:27:49.329Z,84.39
2018-01-31T06:30:16.797Z,85.02
2018-01-31T06:32:44.377Z,84.71
2018-01-31T06:35:11.827Z,84.89
2018-01-31T06:37:39.269Z,84.52
2018-01-31T06:40:07.360Z,84.99
2018-01-31T06:42:34.800Z,84.80
2018-01-31T06:45:02.269Z,84.39
2018-01-31T06:47:29.737Z,85.01
2018-01-31T06:49:57.357Z,84.83
2018-01-31T06:52:24.797Z,84.86
2018-01-31T06:54:52.274Z,84.64
2018-01-31T06:57:19.737Z,84.79
2018-01-31T06:59:47.177Z,83.75
2018-01-31T07:02:14.797Z,84.14
2018-01-31T07:04:42.240Z,84.76
2018-01-31T07:07:09.672Z,84.33
2018-01-31T07:09:37.349Z,84.37
2018-01-31T07:12:04.802Z,84.48
2018-01-31T07:14:32.242Z,84.73
2018-01-31T07:16:59.812Z,85.46
2018-01-31T07:19:27.252Z,85.34
2018-01-31T07:21:54.727Z,85.80
2018-01-31T07:24:22.196Z,85.13
2018-01-31T07:26:49.646Z,86.05
2018-01-31T07:29:17.259Z,85.09
2018-01-31T07:31:44.704Z,84.67
2018-01-31T07:34:12.149Z,84.54
2018-01-31T07:36:39.604Z,84.60
2018-01-31T07:39:07.071Z,84.52
2018-01-31T07:41:34.693Z,84.25
2018-01-31T07:44:02.136Z,83.88
2018-01-31T07:46:29.624Z,83.75
2018-01-31T07:48:57.088Z,84.13
2018-01-31T07:51:24.532Z,83.67
2018-01-31T07:53:52.154Z,83.70
2018-01-31T07:56:19.637Z,83.65
2018-01-31T07:58:47.081Z,83.86
2018-01-31T08:01:14.549Z,83.65
2018-01-31T08:03:41.988Z,84.12
2018-01-31T08:06:09.479Z,84.95
2018-01-31T08:08:36.941Z,85.02
2018-01-31T08:11:04.376Z,85.44
2018-01-31T08:13:31.834Z,85.15
2018-01-31T08:15:59.276Z,85.11
2018-01-31T08:18:27.251Z,85.20
2018-01-31T08:20:54.696Z,85.12
2018-01-31T08:23:23.101Z,84.82
2018-01-31T08:25:50.566Z,85.13
2018-01-31T08:28:18.013Z,85.30
2018-01-31T08:30:45.870Z,84.99
2018-01-31T08:33:13.327Z,85.88
2018-01-31T08:35:41.143Z,85.34
2018-01-31T08:38:08.656Z,84.89
2018-01-31T08:40:36.077Z,85.20
2018-01-31T08:43:03.576Z,85.16
2018-01-31T08:45:31.030Z,85.45
2018-01-31T08:47:58.475Z,85.61
2018-01-31T08:50:25.966Z,84.87
2018-01-31T08:52:53.403Z,85.05
2018-01-31T08:55:21.372Z,84.92
2018-01-31T08:57:48.822Z,83.57
2018-01-31T09:00:16.269Z,84.56
2018-01-31T09:02:43.788Z,83.72
2018-01-31T09:05:11.260Z,83.80
2018-01-31T09:07:38.872Z,83.91
2018-01-31T09:10:06.322Z,84.34
2018-01-31T09:12:33.824Z,84.98
2018-01-31T09:15:01.284Z,85.63
2018-01-31T09:17:28.744Z,85.80
2018-01-31T09:19:56.368Z,85.51
2018-01-31T09:22:23.804Z,85.98
2018-01-31T09:24:51.241Z,85.87
2018-01-31T09:27:18.709Z,85.96
2018-01-31T09:29:46.174Z,85.73
2018-01-31T09:32:13.651Z,86.24
2018-01-31T09:34:41.099Z,85.73
2018-01-31T09:37:08.541Z,85.68
2018-01-31T09:39:36.035Z,85.06
2018-01-31T09:42:03.501Z,85.57
2018-01-31T09:44:31.206Z,85.15
2018-01-31T09:46:58.641Z,84.94
2018-01-31T09:49:26.089Z,85.50
2018-01-31T09:51:53.560Z,85.66
2018-01-31T09:54:20.996Z,85.64
2018-01-31T09:56:48.473Z,86.08
2018-01-31T09:59:15.969Z,86.31
2018-01-31T10:01:43.405Z,86.30
2018-01-31T10:04:14.182Z,86.92
2018-01-31T10:06:41.685Z,86.73
2018-01-31T10:09:09.352Z,86.50
2018-01-31T10:11:36.833Z,86.75
2018-01-31T10:14:04.280Z,86.32
2018-01-31T10:16:32.586Z,85.44
2018-01-31T10:19:00.055Z,86.48
2018-01-31T10:21:27.663Z,86.39
2018-01-31T10:23:55.184Z,85.84
2018-01-31T10:26:22.630Z,85.70
2018-01-31T10:28:50.101Z,84.70
2018-01-31T10:31:17.545Z,84.66
2018-01-31T10:33:45.021Z,84.49
2018-01-31T10:36:12.485Z,84.07
2018-01-31T10:38:39.932Z,83.23
2018-01-31T10:41:07.414Z,83.15
2018-01-31T10:43:34.857Z,82.70
2018-01-31T10:46:02.333Z,82.37
2018-01-31T10:48:29.779Z,82.02
2018-01-31T10:50:57.238Z,81.92
2018-01-31T10:53:24.704Z,81.45
2018-01-31T10:58:20.631Z,80.51
2018-01-31T11:00:48.083Z,80.75
2018-01-31T11:03:15.521Z,79.47
2018-01-31T11:05:43.002Z,79.47
2018-01-31T11:08:10.764Z,79.60
2018-01-31T11:10:38.388Z,79.83
2018-01-31T11:13:05.831Z,79.75
2018-01-31T11:15:33.266Z,79.04
2018-01-31T11:18:00.725Z,79.28
2018-01-31T11:20:28.190Z,77.83
2018-01-31T11:22:55.738Z,78.81
2018-01-31T11:25:23.176Z,79.29
2018-01-31T11:27:50.637Z,78.38
2018-01-31T11:30:18.126Z,78.24
2018-01-31T11:32:45.564Z,77.85
2018-01-31T11:35:13.190Z,77.75
2018-01-31T11:37:40.629Z,78.55
2018-01-31T11:40:08.064Z,78.43
2018-01-31T11:42:35.548Z,78.05
2018-01-31T11:45:02.990Z,78.44
2018-01-31T11:47:31.193Z,78.91
2018-01-31T11:49:58.702Z,78.90
2018-01-31T11:52:26.156Z,78.18
2018-01-31T11:54:53.614Z,78.72
2018-01-31T11:57:21.069Z,78.81
2018-01-31T11:59:48.633Z,79.13
2018-01-31T12:02:16.093Z,79.90
2018-01-31T12:04:43.528Z,79.66
2018-01-31T12:07:10.988Z,79.76
2018-01-31T12:09:39.842Z,79.87
2018-01-31T12:12:09.815Z,79.86
2018-01-31T12:14:49.076Z,79.38
2018-01-31T12:17:16.801Z,79.40
2018-01-31T12:20:07.111Z,79.80
2018-01-31T12:22:48.429Z,79.73
2018-01-31T12:25:28.780Z,79.74
2018-01-31T12:28:08.065Z,79.58
2018-01-31T12:30:42.112Z,79.96
2018-01-31T12:33:21.669Z,80.70
2018-01-31T12:36:01.064Z,80.83
2018-01-31T12:38:40.253Z,80.58
2018-01-31T12:41:07.258Z,81.04
2018-01-31T12:43:34.152Z,81.18
2018-01-31T12:46:13.568Z,81.98
2018-01-31T12:48:52.785Z,83.66
2018-01-31T12:54:28.762Z,83.41
2018-01-31T12:57:08.220Z,82.90
2018-01-31T12:59:47.341Z,82.33
2018-01-31T13:02:26.640Z,81.93
2018-01-31T13:05:06.102Z,82.24
2018-01-31T13:07:45.405Z,82.36
2018-01-31T13:10:24.674Z,82.30
2018-01-31T13:16:03.108Z,81.75
2018-01-31T13:18:42.433Z,81.76
2018-01-31T13:21:22.086Z,82.28
2018-01-31T13:24:01.533Z,81.98
2018-01-31T13:29:26.105Z,81.96
2018-01-31T13:32:05.394Z,81.77
2018-01-31T13:34:44.664Z,81.90
2018-01-31T13:37:29.887Z,82.92
2018-01-31T13:40:07.341Z,83.29
2018-01-31T13:42:48.016Z,84.04
2018-01-31T13:45:27.414Z,84.26
2018-01-31T13:48:06.781Z,84.61
2018-01-31T13:50:46.013Z,85.43
2018-01-31T13:53:25.324Z,85.60
2018-01-31T13:56:04.720Z,85.43
2018-01-31T13:58:44.139Z,85.08
2018-01-31T14:01:23.582Z,85.87
2018-01-31T14:04:02.861Z,86.96
2018-01-31T14:06:42.286Z,87.59
2018-01-31T14:12:20.456Z,88.29
2018-01-31T14:14:59.716Z,88.32
2018-01-31T14:17:39.014Z,86.70
2018-01-31T14:20:18.369Z,86.61
2018-01-31T14:22:58.373Z,86.71
2018-01-31T14:25:37.984Z,87.34
2018-01-31T14:28:17.400Z,87.00
2018-01-31T14:30:56.937Z,87.12
2018-01-31T14:33:36.287Z,87.30
2018-01-31T14:36:12.554Z,87.27
2018-01-31T14:38:39.483Z,86.92
2018-01-31T14:41:06.379Z,86.05
2018-01-31T14:43:33.301Z,85.43
2018-01-31T14:46:00.207Z,86.05
2018-01-31T14:48:27.128Z,85.94
2018-01-31T14:50:54.025Z,85.41
2018-01-31T14:53:20.946Z,84.63
2018-01-31T14:55:47.869Z,84.55
2018-01-31T14:58:14.770Z,84.55
2018-01-31T15:00:41.882Z,84.43
2018-01-31T15:03:08.839Z,84.17
2018-01-31T15:05:36.078Z,84.26
2018-01-31T15:08:03.012Z,84.29
2018-01-31T15:10:29.928Z,83.12
2018-01-31T15:12:56.850Z,83.94
2018-01-31T15:15:23.752Z,83.71
2018-01-31T15:17:50.669Z,84.25
2018-01-31T15:20:17.590Z,84.30
2018-01-31T15:22:44.487Z,84.66
2018-01-31T15:25:11.678Z,85.02
2018-01-31T15:27:38.608Z,85.52
2018-01-31T15:30:05.521Z,86.12
2018-01-31T15:32:32.481Z,86.69
2018-01-31T15:34:59.393Z,87.45
2018-01-31T15:37:26.666Z,86.73
2018-01-31T15:39:53.571Z,86.40
2018-01-31T15:42:20.469Z,85.01
2018-01-31T15:44:47.384Z,84.86
2018-01-31T15:47:14.286Z,85.52
2018-01-31T15:49:41.209Z,85.82
2018-01-31T15:52:08.118Z,85.06
2018-01-31T15:54:35.126Z,85.31
2018-01-31T15:57:02.054Z,84.94
2018-01-31T15:59:28.955Z,85.19
2018-01-31T16:01:56.356Z,85.68
2018-01-31T16:04:23.382Z,86.21
2018-01-31T16:06:50.310Z,86.65
2018-01-31T16:09:17.229Z,86.46
2018-01-31T16:11:44.128Z,87.35
2018-01-31T16:14:11.049Z,86.47
2018-01-31T16:16:38.486Z,87.33
2018-01-31T16:19:18.299Z,87.72
2018-01-31T16:21:45.729Z,87.40
2018-01-31T16:24:13.173Z,86.30
2018-01-31T16:26:40.625Z,86.11
2018-01-31T16:29:19.833Z,86.65
2018-01-31T16:31:59.109Z,86.92
2018-01-31T16:34:26.560Z,87.21
2018-01-31T16:36:54.044Z,87.38
2018-01-31T16:39:21.572Z,86.82
2018-01-31T16:41:49.420Z,86.66
2018-01-31T16:44:16.880Z,87.27
2018-01-31T16:46:44.316Z,86.26
2018-01-31T16:49:11.802Z,87.04
2018-01-31T16:51:39.268Z,87.36
2018-01-31T16:54:07.149Z,86.87
2018-01-31T16:56:34.605Z,86.27
2018-01-31T16:59:02.068Z,86.02
2018-01-31T17:01:29.669Z,85.73
2018-01-31T17:03:57.100Z,85.88
2018-01-31T17:06:24.790Z,85.97
2018-01-31T17:08:52.225Z,85.93
2018-01-31T17:11:19.657Z,85.77
2018-01-31T17:13:47.117Z,84.65
2018-01-31T17:16:14.554Z,85.00
2018-01-31T17:18:42.129Z,85.30
2018-01-31T17:21:09.567Z,84.95
2018-01-31T17:23:37.006Z,85.05
2018-01-31T17:26:04.465Z,86.24
2018-01-31T17:28:31.898Z,85.99
2018-01-31T17:30:59.397Z,86.16
2018-01-31T17:33:26.832Z,86.26
2018-01-31T17:35:54.469Z,86.01
2018-01-31T17:38:21.901Z,85.82
2018-01-31T17:40:49.364Z,86.11
2018-01-31T17:43:16.959Z,86.20
2018-01-31T17:45:44.377Z,86.52
2018-01-31T17:48:11.849Z,86.15
2018-01-31T17:50:39.298Z,86.89
2018-01-31T17:53:06.733Z,86.71
2018-01-31T17:55:34.953Z,87.02
2018-01-31T17:58:02.384Z,87.67
2018-01-31T18:00:29.840Z,87.43
2018-01-31T18:02:57.284Z,87.00
2018-01-31T18:05:24.739Z,86.84
2018-01-31T18:07:53.147Z,87.30
2018-01-31T18:10:20.596Z,87.85
2018-01-31T18:12:48.276Z,87.97
2018-01-31T18:15:15.704Z,87.88
2018-01-31T18:17:43.136Z,86.97
2018-01-31T18:20:10.600Z,86.67
2018-01-31T18:22:38.045Z,86.56
2018-01-31T18:25:05.706Z,86.73
2018-01-31T18:27:33.169Z,86.56
2018-01-31T18:30:00.618Z,86.57
2018-01-31T18:32:28.070Z,87.27
2018-01-31T18:34:55.520Z,86.53
2018-01-31T18:37:23.133Z,86.54
2018-01-31T18:39:50.573Z,86.96
2018-01-31T18:42:18.013Z,86.62
2018-01-31T18:44:45.465Z,85.97
2018-01-31T18:47:12.901Z,86.22
2018-01-31T18:49:40.528Z,86.33
2018-01-31T18:52:07.966Z,86.80
2018-01-31T18:54:35.418Z,86.31
2018-01-31T18:57:02.913Z,86.42
2018-01-31T18:59:30.361Z,86.62
2018-01-31T19:01:58.213Z,86.58
2018-01-31T19:04:25.670Z,86.50
2018-01-31T19:06:53.136Z,87.26
2018-01-31T19:09:20.593Z,87.82
2018-01-31T19:11:48.029Z,89.08
2018-01-31T19:14:15.502Z,88.18
2018-01-31T19:16:42.941Z,88.15
2018-01-31T19:19:10.372Z,86.70
2018-01-31T19:21:37.837Z,85.47
2018-01-31T19:24:05.275Z,84.19
2018-01-31T19:26:32.713Z,85.80
2018-01-31T19:29:00.175Z,85.94
2018-01-31T19:31:27.636Z,85.73
2018-01-31T19:33:55.102Z,87.04
2018-01-31T19:36:23.013Z,86.71
2018-01-31T19:38:50.457Z,86.20
2018-01-31T19:41:17.889Z,85.85
2018-01-31T19:43:45.379Z,86.15
2018-01-31T19:46:12.817Z,85.89
2018-01-31T19:48:40.422Z,86.45
2018-01-31T19:51:07.874Z,85.14
2018-01-31T19:53:35.333Z,84.86
2018-01-31T19:56:02.812Z,85.41
2018-01-31T19:58:30.246Z,86.33
2018-01-31T20:00:57.706Z,86.33
2018-01-31T20:03:25.160Z,86.21
2018-01-31T20:05:53.603Z,85.14
2018-01-31T20:08:21.053Z,86.87
2018-01-31T20:10:48.493Z,86.61
2018-01-31T20:13:15.949Z,86.06
2018-01-31T20:15:43.406Z,86.51
2018-01-31T20:18:12.161Z,87.14
2018-01-31T20:20:39.602Z,87.36
2018-01-31T20:23:07.041Z,87.36
2018-01-31T20:25:35.853Z,87.72
2018-01-31T20:28:03.290Z,87.56
2018-01-31T20:30:30.761Z,87.81
2018-01-31T20:32:58.317Z,87.46
2018-01-31T20:35:25.765Z,87.36
2018-01-31T20:37:53.218Z,87.62
2018-01-31T20:40:20.652Z,85.56
2018-01-31T20:42:48.493Z,86.82
2018-01-31T20:45:15.938Z,86.18
2018-01-31T20:47:43.377Z,86.00
2018-01-31T20:50:10.859Z,85.01
2018-01-31T20:52:38.298Z,86.01
2018-01-31T20:55:05.944Z,85.84
2018-01-31T20:57:33.397Z,85.33
2018-01-31T21:00:00.852Z,84.27
2018-01-31T21:02:28.309Z,84.56
2018-01-31T21:04:55.960Z,84.38
2018-01-31T21:07:23.600Z,84.70
2018-01-31T21:09:51.045Z,84.52
2018-01-31T21:12:18.585Z,84.12
2018-01-31T21:14:46.072Z,83.58
2018-01-31T21:17:13.506Z,83.90
2018-01-31T21:19:40.977Z,84.85
2018-01-31T21:22:08.433Z,84.18
2018-01-31T21:24:35.868Z,84.86
2018-01-31T21:27:03.434Z,85.12
2018-01-31T21:29:30.874Z,83.71
2018-01-31T21:31:58.336Z,84.72
2018-01-31T21:34:25.792Z,85.26
2018-01-31T21:36:53.232Z,84.42
2018-01-31T21:39:20.696Z,83.68
2018-01-31T21:41:48.174Z,83.63
2018-01-31T21:44:16.093Z,84.49
2018-01-31T21:46:43.541Z,84.20
2018-01-31T21:49:10.981Z,83.92
2018-01-31T21:51:38.437Z,85.12
2018-01-31T21:54:05.879Z,83.89
2018-01-31T21:56:33.463Z,83.38
2018-01-31T21:59:00.895Z,83.88
2018-01-31T22:01:28.329Z,83.61
2018-01-31T22:03:55.900Z,84.15
2018-01-31T22:06:23.340Z,84.91
2018-01-31T22:08:51.050Z,85.15
2018-01-31T22:11:18.480Z,84.94
2018-01-31T22:13:45.922Z,84.11
2018-01-31T22:16:13.381Z,84.62
2018-01-31T22:18:40.814Z,83.52
2018-01-31T22:21:08.562Z,83.12
2018-01-31T22:23:35.996Z,84.36
2018-01-31T22:26:03.425Z,83.78
2018-01-31T22:28:30.876Z,83.14
2018-01-31T22:30:58.422Z,83.20
2018-01-31T22:33:26.176Z,83.94
2018-01-31T22:35:53.612Z,85.12
2018-01-31T22:38:21.050Z,84.09
2018-01-31T22:40:48.516Z,84.66
2018-01-31T22:43:15.956Z,85.00
2018-01-31T22:45:43.428Z,84.86
2018-01-31T22:48:10.867Z,85.40
2018-01-31T22:50:38.500Z,86.14
2018-01-31T22:53:05.968Z,86.38
2018-01-31T22:55:33.403Z,85.71
2018-01-31T22:58:00.860Z,86.35
2018-01-31T23:00:28.309Z,85.19
2018-01-31T23:02:55.766Z,86.71
2018-01-31T23:05:23.220Z,87.45
2018-01-31T23:07:50.648Z,87.48
2018-01-31T23:10:18.286Z,85.73
2018-01-31T23:12:51.312Z,85.14
2018-01-31T23:15:18.802Z,87.43
2018-01-31T23:17:52.014Z,85.33
2018-01-31T23:20:19.475Z,86.17
2018-01-31T23:22:46.945Z,86.00
2018-01-31T23:25:14.464Z,86.83
2018-01-31T23:27:41.909Z,85.88
2018-01-31T23:30:09.353Z,85.05
2018-01-31T23:32:37.230Z,84.93
2018-01-31T23:35:04.677Z,84.49
2018-01-31T23:37:32.141Z,84.31
2018-01-31T23:39:59.616Z,84.97
2018-01-31T23:42:27.251Z,84.65
2018-01-31T23:44:54.728Z,84.70
2018-01-31T23:47:22.165Z,85.70
2018-01-31T23:49:49.870Z,85.35
2018-01-31T23:52:17.313Z,86.01
2018-01-31T23:54:44.749Z,85.75
2018-01-31T23:57:12.251Z,85.99
2018-01-31T23:59:39.681Z,85.92
